x

Jonesport, Me - 20 Nm Se Of Jonesport, Me (44027) Wave Buoy

12:50pm - Fri 12th Feb 2016 All times are AST. -4 hours from GMT.

  • Sig Wave height 5.6ft
  • Swell Direction
  • Peak Period 9s
  • Average Period 6s
  • Wind
    13mph, 20mph gusts
  • Sea Temp 41°f
  • Air Temp 11°f
  • Sea Pressure 1017.3mb
  • Jonesport, Me - 20 Nm Se Of Jonesport, Me
  • Jonesport, Me - 20 Nm Se Of Jonesport, Me

More Historic Weather Station data

Upgrade to MSW Pro to gain access to the past 30 days of data for over 8000 Wavebouys and Weather Stations around the globe.

Join Pro

Comparision Forecast

View Surf forecast
   
Fri 02/12 12:50pm 5.5ft 9s 6s 13 20 mph 1017.3mb 41f 11f
11:50am 5.5ft 8s 6s 16 25 mph 1017.6mb 42f 10f
10:50am 6ft 9s 6s 20 25 mph 1017.6mb 42f 10f
9:50am 6ft 10s 6s 18 27 mph 1017.6mb 42f 8f
8:50am 6ft 9s 6s 18 27 mph 1017.3mb 42f 8f
7:50am 6ft 11s 6s 22 29 mph 1016.1mb 42f 9f
6:50am 6ft 9s 5s 25 29 mph 1014.6mb 42f 10f
5:50am 6ft 6s 5s 25 31 mph 1013.5mb 42f 11f
4:50am 6ft 6s 5s 27 34 mph 1012.3mb 41f 11f
3:50am 6ft 5s 5s 27 34 mph 1010.7mb 41f 13f
2:50am 6ft 5s 5s 27 34 mph 1009.6mb 41f 14f
1:50am 7ft 5s 5s 27 36 mph 1008.3mb 41f 17f
12:50am 6.5ft 5s 5s 34 40 mph 1006.7mb 42f 18f
Thu 02/11 11:50pm 6ft 5s 5s 31 40 mph 1005.9mb 42f 21f
10:50pm 5.5ft 10s 5s 27 34 mph 1005.3mb 42f 23f
9:50pm 5ft 10s 5s 25 31 mph 1004.8mb 42f 26f
8:50pm 4.5ft 10s 6s 22 29 mph 1004.2mb 42f 27f
7:50pm 4.5ft 11s 6s 18 22 mph 1003.8mb 42f 28f
6:50pm 4.5ft 12s 6s 13 18 mph 1003.7mb 42f 28f
5:50pm 4.5ft 12s 6s 16 20 mph 1003.2mb 42f 28f
4:50pm 4.5ft 13s 7s 13 18 mph 1002.8mb 42f 28f
3:50pm 5ft 12s 6s 11 16 mph 1001.7mb 42f 28f
2:50pm 4.5ft 14s 6s 11 18 mph 1001.2mb 42f 27f
1:50pm 4.5ft 13s 6s 11 16 mph 1001.4mb 42f 27f
12:50pm 5.5ft 14s 6s 16 20 mph 1001.4mb 42f 27f
11:50am 5ft 14s 7s 18 22 mph 1001.3mb 42f 28f
10:50am 5ft 10s 6s 18 22 mph 1001.6mb 43f 28f
9:50am 5ft 11s 6s 18 22 mph 1001.5mb 43f 29f
8:50am 4.5ft 12s 6s 20 25 mph 1000.7mb 43f 30f
7:50am 5ft 11s 7s 20 25 mph 1000.5mb 42f 32f
6:50am 4.5ft 11s 7s 13 18 mph 1000.1mb 42f 35f
5:50am 4.5ft 11s 7s 13 16 mph 1000.1mb 42f 35f
4:50am 4.5ft 11s 7s 13 18 mph 999.4mb 42f 35f
3:50am 4.5ft 11s 6s 18 22 mph 999.5mb 42f 33f
2:50am 5.5ft 11s 8s 18 22 mph 999.6mb 42f 35f
1:50am 5ft 12s 8s 16 18 mph 1000.1mb 43f 34f
12:50am 5ft 11s 9s 13 18 mph 1000.6mb 43f 33f
Wed 02/10 11:50pm 4.5ft 12s 9s 11 16 mph 1000.9mb 43f 33f
10:50pm 4.5ft 12s 9s 9 11 mph 1001.3mb 43f 32f
9:50pm 4.5ft 11s 9s 4 9 mph 1001.6mb 44f 32f
8:50pm 5ft 11s 10s 7 9 mph 1001.8mb 44f 31f
7:50pm 4.5ft 11s 10s 7 9 mph 1002.4mb 44f 33f
6:50pm 4.5ft 11s 10s 2
mph
1002.3mb 44f 32f
5:50pm 4.5ft 12s 10s 2 9 mph 1001.6mb 44f 32f
4:50pm 4.5ft 11s 10s 4 7 mph 1001.2mb 44f 32f
3:50pm 4.5ft 11s 10s 4 7 mph 1001.3mb 44f 31f
2:50pm 4.5ft 12s 9s 4 9 mph 1001.3mb 43f 31f
1:50pm 3.5ft 12s 8s 7 11 mph 1001.8mb 43f 29f
12:50pm 3.5ft 11s 7s 9 13 mph 1002.3mb 43f 29f
11:50am 3ft 14s 7s 9 11 mph 1002.9mb 43f 29f
10:50am 3ft 11s 7s 7 11 mph 1003.1mb 43f 28f
9:50am 3ft 11s 6s 9 11 mph 1003.2mb 43f 27f
8:50am 3.5ft 11s 7s 11 13 mph 1003.2mb 43f 27f
7:50am 3ft 11s 6s 4 9 mph 1003.1mb 43f 26f
6:50am 3ft 12s 6s 9 13 mph 1002.3mb 43f 26f
5:50am 3.5ft 11s 7s 11 16 mph 1001.5mb 43f 27f
4:50am 3.5ft 11s 7s 11 16 mph 1001.8mb 43f 27f
3:50am 4ft 13s 7s 13 18 mph 1001.6mb 43f 27f
2:50am 4.5ft 13s 7s 11 20 mph 1001mb 43f 27f
1:50am 4.5ft 11s 7s 13 18 mph 1000.8mb 43f 28f
12:50am 5ft 11s 7s 11 16 mph 1000.4mb 43f 28f
Tue 02/09 11:50pm 5ft 13s 7s 11 16 mph 999.7mb 43f 28f
10:50pm 5ft 13s 7s 13 20 mph 999.7mb 43f 28f
9:50pm 5.5ft 11s 8s 13 20 mph 1000mb 43f 29f
8:50pm 6ft 11s 8s 16 20 mph 1000.8mb 43f 29f
7:50pm 6.5ft 13s 8s 13 20 mph 1000.9mb 43f 30f
6:50pm 7ft 14s 9s 16 20 mph 1001mb 43f 30f
5:50pm 7.5ft 14s 9s 13 18 mph 1001.2mb 43f 29f
4:50pm 6.5ft 13s 8s 13 18 mph 1000.9mb 43f 29f
3:50pm 8ft 14s 9s 13 20 mph 1001.1mb 43f 29f
2:50pm 9.5ft 14s 9s 13 18 mph 1002.1mb 43f 28f
1:50pm 9.5ft 15s 9s 16 20 mph 1002.6mb 43f 27f
12:50pm 10.5ft 15s 9s 18 25 mph 1002.6mb 43f 26f
11:50am 10.5ft 16s 9s 16 20 mph 1004.1mb 43f 26f
10:50am 9.5ft 15s 9s 16 20 mph 1004.2mb 43f 26f
9:50am 8.5ft 16s 9s 20 27 mph 1003.2mb 43f 26f
8:50am 9ft 15s 8s 18 22 mph 1004.2mb 43f 27f
7:50am 9ft 13s 7s 20 25 mph 1003.8mb 43f 26f
6:50am 8ft 14s 6s 25 31 mph 1003.9mb 43f 25f
5:50am 8ft 15s 6s 27 31 mph 1004.3mb 43f 25f
4:50am 9ft 13s 6s 29 36 mph 1003.8mb 43f 25f
3:50am 9ft 6s 6s 31 38 mph 1003.7mb 43f 24f
2:50am 9ft 6s 6s 34 38 mph 1003.3mb 43f 24f
1:50am 10ft 7s 6s 34 40 mph 1002.9mb 43f 24f
12:50am 11ft 11s 7s 31 38 mph 1003.1mb 43f 25f
Mon 02/08 11:50pm 11ft 10s 7s 31 38 mph 1002.4mb 43f 26f
10:50pm 12ft 10s 7s 34 40 mph 1002mb 43f 27f
9:50pm 13ft 9s 7s 38 47 mph 1002.1mb 43f 28f
8:50pm 13.5ft 9s 7s 38 47 mph 1002.2mb 43f 28f
7:50pm 13ft 10s 7s 40 47 mph 1002.4mb 43f 28f
6:50pm 12.5ft 7s 6s 40 49 mph 1003.1mb 43f 27f